Terminal Aerodrome Forecast
Issued by NWS

Home | Current Version | Previous Version | Text Only | Print | Product List | Glossary Off
Versions: 1 2 3 4 5 6 7 8 9 10 11 12 13 14 15 16 17 18 19 20 21 22 23 24 25 26 27 28 29

000
FTUS45 KGGW 301100
TAFGDV
TAF
KGDV 301130Z 3012/0112 VRB04KT 6SM -RA OVC005
     FM301700 31006KT 6SM -RA OVC015
     FM010400 30014KT P6SM -RA BKN015 OVC020
      AMD LTD TO CLD VIS AND WIND=

USA.gov is the U.S. government's official web portal to all federal, state and local government web resources and services.